Time;durP1;ratioP1;P1;durP2;ratioP2;P2;SDS_P1;SDS_P2;PMS_P1;PMS_P2;Temp;Humidity;BMP_temperature;BMP_pressure;BME280_temperature;BME280_humidity;BME280_pressure;Samples;Min_cycle;Max_cycle;Signal;HPM_P1;HPM_P2
2022/07/24 00:01:47;;;;;;;6.83;4.63;;;22.20;71.80;;;;;;10362921;28;20300;-71
2022/07/24 00:06:47;;;;;;;11.07;4.63;;;22.10;72.30;;;;;;10356526;28;20221;-71
2022/07/24 00:11:54;;;;;;;6.70;4.33;;;22.00;73.00;;;;;;10353530;28;20225;-71
2022/07/24 00:16:54;;;;;;;4.80;4.20;;;21.90;73.50;;;;;;10362499;28;20229;-71
2022/07/24 00:21:59;;;;;;;4.67;4.17;;;21.80;74.00;;;;;;10373799;28;20226;-71
2022/07/24 00:27:03;;;;;;;6.83;4.40;;;21.80;74.20;;;;;;10359237;28;20226;-71
2022/07/24 00:32:09;;;;;;;6.97;4.60;;;21.80;74.40;;;;;;10374290;28;20719;-71
2022/07/24 00:37:10;;;;;;;6.77;4.60;;;21.90;74.70;;;;;;10371504;28;20224;-71
2022/07/24 00:42:10;;;;;;;7.87;5.30;;;21.80;74.80;;;;;;10365528;28;20314;-70
2022/07/24 00:47:11;;;;;;;9.77;5.80;;;21.70;75.40;;;;;;10375387;28;20216;-71
2022/07/24 00:52:11;;;;;;;10.30;5.80;;;21.70;76.00;;;;;;10368801;28;20217;-71
2022/07/24 00:57:12;;;;;;;11.37;5.10;;;21.60;76.20;;;;;;10361887;28;20743;-71
2022/07/24 01:02:13;;;;;;;6.60;5.13;;;21.60;76.30;;;;;;10367354;28;20209;-71
2022/07/24 01:07:14;;;;;;;7.07;4.90;;;21.60;76.80;;;;;;10369312;28;20698;-71
2022/07/24 01:12:14;;;;;;;6.57;4.80;;;21.40;77.50;;;;;;10369406;28;20263;-71
2022/07/24 01:17:15;;;;;;;7.37;4.23;;;21.40;78.20;;;;;;10375175;28;20221;-71
2022/07/24 01:22:15;;;;;;;5.50;4.30;;;21.30;78.20;;;;;;10362599;28;20221;-71
2022/07/24 01:27:16;;;;;;;7.53;4.73;;;21.30;78.40;;;;;;10361428;28;20277;-72
2022/07/24 01:32:17;;;;;;;6.27;4.67;;;21.30;78.90;;;;;;10370394;28;20217;-72
2022/07/24 01:37:21;;;;;;;9.87;5.00;;;21.30;79.40;;;;;;10367243;28;20267;-72
2022/07/24 01:42:23;;;;;;;6.20;4.60;;;21.30;79.50;;;;;;10368544;28;20226;-71
2022/07/24 01:47:24;;;;;;;4.83;4.13;;;21.20;79.90;;;;;;10375119;28;20251;-72
2022/07/24 01:52:25;;;;;;;4.40;3.60;;;21.00;80.00;;;;;;10359729;28;20354;-72
2022/07/24 01:57:25;;;;;;;4.67;4.00;;;21.00;81.50;;;;;;10361377;28;20576;-70
2022/07/24 02:02:27;;;;;;;4.97;4.40;;;20.80;81.40;;;;;;10360490;28;20229;-71
2022/07/24 02:07:27;;;;;;;6.17;4.57;;;20.70;82.40;;;;;;10359062;28;20217;-71
2022/07/24 02:12:28;;;;;;;4.70;4.17;;;20.70;83.20;;;;;;10363920;28;20221;-71
2022/07/24 02:17:29;;;;;;;8.23;4.17;;;20.70;83.60;;;;;;10362471;28;20225;-71
2022/07/24 02:22:29;;;;;;;6.43;4.20;;;20.70;84.90;;;;;;10366402;28;20237;-71
2022/07/24 02:27:30;;;;;;;4.60;4.10;;;20.50;85.10;;;;;;10359141;28;20636;-70
2022/07/24 02:32:30;;;;;;;4.33;3.93;;;20.50;86.10;;;;;;10363660;28;20216;-71
2022/07/24 02:37:31;;;;;;;4.83;4.43;;;20.40;86.60;;;;;;10384965;28;20287;-71
2022/07/24 02:42:31;;;;;;;4.70;4.20;;;20.40;87.50;;;;;;10359042;28;20229;-71
2022/07/24 02:47:32;;;;;;;7.80;3.97;;;20.40;87.90;;;;;;10362916;28;20613;-71
2022/07/24 02:52:33;;;;;;;8.83;4.67;;;20.30;88.40;;;;;;10363812;28;20229;-72
2022/07/24 02:57:34;;;;;;;5.17;4.50;;;20.30;89.10;;;;;;10362995;28;20319;-71
2022/07/24 03:02:35;;;;;;;5.63;4.10;;;20.30;89.80;;;;;;10361283;28;20228;-71
2022/07/24 03:07:36;;;;;;;5.67;4.23;;;20.20;90.20;;;;;;10364111;28;20280;-71
2022/07/24 03:12:37;;;;;;;5.27;4.77;;;20.20;90.60;;;;;;10360297;28;20608;-71
2022/07/24 03:17:37;;;;;;;4.97;4.40;;;20.20;91.00;;;;;;10363280;28;20218;-71
2022/07/24 03:22:38;;;;;;;5.20;4.67;;;20.10;91.40;;;;;;10367606;28;20232;-71
2022/07/24 03:27:42;;;;;;;5.47;4.10;;;20.10;92.00;;;;;;10354724;28;20345;-71
2022/07/24 03:32:42;;;;;;;8.30;4.87;;;20.00;92.50;;;;;;10355985;28;20251;-71
2022/07/24 03:37:43;;;;;;;5.67;4.40;;;19.90;93.20;;;;;;10364111;28;20231;-72
2022/07/24 03:42:44;;;;;;;7.70;4.77;;;19.90;93.80;;;;;;10355319;28;20310;-71
2022/07/24 03:47:44;;;;;;;5.37;4.40;;;19.80;94.50;;;;;;10370084;28;20223;-70
2022/07/24 03:52:45;;;;;;;6.17;4.80;;;19.80;95.30;;;;;;10355845;28;20251;-71
2022/07/24 03:57:45;;;;;;;6.10;4.90;;;19.80;96.10;;;;;;10351892;28;20218;-71
2022/07/24 04:02:46;;;;;;;7.23;4.83;;;19.80;97.00;;;;;;10358558;28;20221;-71
2022/07/24 04:07:47;;;;;;;4.77;4.23;;;19.80;97.60;;;;;;10353132;28;20312;-71
2022/07/24 04:12:47;;;;;;;10.23;4.43;;;19.80;98.00;;;;;;10355402;28;20228;-70
2022/07/24 04:17:48;;;;;;;5.03;4.27;;;19.70;98.80;;;;;;10377325;28;20319;-71
2022/07/24 04:22:48;;;;;;;5.60;4.50;;;19.70;99.60;;;;;;10358454;28;20231;-72
2022/07/24 04:27:49;;;;;;;6.13;4.70;;;19.70;99.90;;;;;;10350486;28;20230;-71
2022/07/24 04:32:49;;;;;;;5.70;5.10;;;19.80;99.90;;;;;;10358899;28;20322;-71
2022/07/24 04:37:51;;;;;;;5.33;4.50;;;19.90;99.90;;;;;;10354572;28;20233;-72
2022/07/24 04:42:51;;;;;;;7.23;4.57;;;20.00;99.90;;;;;;10361648;28;20231;-71
2022/07/24 04:47:52;;;;;;;6.23;4.80;;;20.00;99.90;;;;;;10363789;28;20290;-71
2022/07/24 04:52:52;;;;;;;7.13;4.77;;;20.10;99.90;;;;;;10369230;28;20224;-71
2022/07/24 04:57:56;;;;;;;8.07;5.23;;;20.20;99.90;;;;;;10364612;28;20218;-71
2022/07/24 05:02:59;;;;;;;5.10;4.70;;;20.30;99.90;;;;;;10363056;28;20689;-72
2022/07/24 05:08:03;;;;;;;5.97;4.50;;;20.60;99.90;;;;;;10356555;28;20301;-71
2022/07/24 05:13:04;;;;;;;6.50;4.57;;;21.50;98.90;;;;;;10363086;28;20226;-72
2022/07/24 05:18:04;;;;;;;6.70;5.00;;;21.80;97.70;;;;;;10367994;28;20692;-71
2022/07/24 05:23:08;;;;;;;5.53;4.20;;;22.20;96.40;;;;;;10367755;28;20230;-71
2022/07/24 05:28:09;;;;;;;7.23;4.57;;;21.90;96.60;;;;;;10364265;28;20267;-71
2022/07/24 05:33:09;;;;;;;4.67;4.27;;;21.80;97.10;;;;;;10368981;28;20763;-71
2022/07/24 05:38:10;;;;;;;4.90;4.50;;;21.90;96.80;;;;;;10359905;28;20259;-71
2022/07/24 05:43:11;;;;;;;7.27;4.90;;;22.10;96.80;;;;;;10359937;28;20626;-71
2022/07/24 05:48:11;;;;;;;7.47;5.00;;;22.90;95.30;;;;;;10366276;28;20264;-71
2022/07/24 05:53:12;;;;;;;6.57;5.33;;;24.60;91.30;;;;;;10359879;28;20790;-71
2022/07/24 05:58:12;;;;;;;5.30;4.47;;;25.80;85.60;;;;;;10358908;28;20691;-71
2022/07/24 06:03:13;;;;;;;8.50;5.27;;;25.70;83.40;;;;;;10367569;28;20223;-71
2022/07/24 06:08:14;;;;;;;6.03;4.80;;;26.10;80.70;;;;;;10359460;28;20243;-71
2022/07/24 06:13:14;;;;;;;5.50;4.90;;;26.70;77.50;;;;;;10361407;28;20241;-71
2022/07/24 06:18:15;;;;;;;7.33;4.70;;;27.60;75.10;;;;;;10357976;28;20225;-71
2022/07/24 06:23:15;;;;;;;7.33;4.87;;;28.30;70.60;;;;;;10367155;28;20739;-71
2022/07/24 06:28:16;;;;;;;5.50;4.63;;;28.60;66.70;;;;;;10373429;28;20684;-72
2022/07/24 06:33:17;;;;;;;7.77;4.63;;;29.00;65.30;;;;;;10364675;28;20217;-72
2022/07/24 06:38:17;;;;;;;4.63;4.17;;;29.00;64.50;;;;;;10365210;28;20680;-72
2022/07/24 06:43:18;;;;;;;7.33;4.90;;;29.40;62.70;;;;;;10368564;28;20221;-71
2022/07/24 06:48:18;;;;;;;8.37;4.73;;;29.90;60.20;;;;;;10357884;28;20248;-71
2022/07/24 06:53:22;;;;;;;5.00;4.50;;;30.80;58.60;;;;;;10360808;28;20220;-71
2022/07/24 06:58:22;;;;;;;6.97;4.60;;;32.00;55.40;;;;;;10365040;28;20221;-71
2022/07/24 07:03:23;;;;;;;5.90;4.30;;;32.20;54.40;;;;;;10369109;28;20228;-71
2022/07/24 07:08:23;;;;;;;7.23;4.87;;;32.70;52.30;;;;;;10364332;28;20216;-71
2022/07/24 07:13:24;;;;;;;6.00;4.60;;;32.20;50.40;;;;;;10361626;28;20225;-71
2022/07/24 07:18:24;;;;;;;4.60;4.20;;;33.00;50.00;;;;;;10360183;28;20315;-71
2022/07/24 07:23:28;;;;;;;4.43;3.80;;;32.90;49.90;;;;;;10371296;28;20283;-72
2022/07/24 07:28:28;;;;;;;3.77;3.47;;;35.50;45.70;;;;;;10356741;28;20213;-72
2022/07/24 07:33:32;;;;;;;4.03;3.73;;;35.80;43.10;;;;;;10362289;28;20217;-72
2022/07/24 07:38:37;;;;;;;5.20;3.17;;;36.30;42.20;;;;;;10355756;28;20251;-72
2022/07/24 07:43:38;;;;;;;6.87;3.67;;;37.00;40.80;;;;;;10359289;28;20607;-71
2022/07/24 07:48:39;;;;;;;3.97;3.57;;;38.10;39.50;;;;;;10370154;28;20256;-71
2022/07/24 07:53:40;;;;;;;3.97;3.67;;;40.20;37.20;;;;;;10362039;28;20235;-72
2022/07/24 07:58:41;;;;;;;3.93;3.60;;;41.50;33.50;;;;;;10356298;28;20229;-72
2022/07/24 08:03:41;;;;;;;4.13;3.83;;;42.30;32.00;;;;;;10362910;28;20232;-72
2022/07/24 08:08:42;;;;;;;4.30;3.70;;;42.50;31.40;;;;;;10352887;28;20249;-72
2022/07/24 08:13:43;;;;;;;4.80;3.50;;;43.30;31.00;;;;;;10357057;28;20744;-71
2022/07/24 08:18:46;;;;;;;3.60;3.30;;;43.60;30.20;;;;;;10356541;28;20221;-72
2022/07/24 08:23:48;;;;;;;4.85;3.55;;;44.20;29.70;;;;;;10369221;28;20234;-72
2022/07/24 08:28:49;;;;;;;4.10;3.53;;;44.70;29.20;;;;;;10361591;28;20213;-73
2022/07/24 08:33:49;;;;;;;6.75;3.88;;;44.50;28.90;;;;;;10362542;28;20572;-76
2022/07/24 08:38:50;;;;;;;4.20;3.80;;;44.90;28.90;;;;;;10354133;28;20221;-72
2022/07/24 08:43:50;;;;;;;4.00;3.50;;;45.90;28.00;;;;;;10361260;28;20316;-72
2022/07/24 08:48:52;;;;;;;4.25;3.85;;;46.20;27.50;;;;;;10377297;28;20217;-73
2022/07/24 08:53:53;;;;;;;4.32;3.90;;;45.80;27.20;;;;;;10365899;28;20283;-73
2022/07/24 08:58:54;;;;;;;4.72;4.20;;;45.80;27.40;;;;;;10365523;28;20325;-72
2022/07/24 09:03:54;;;;;;;4.50;3.42;;;46.40;26.80;;;;;;10376255;28;20321;-72
2022/07/24 09:09:02;;;;;;;4.13;3.83;;;46.70;27.00;;;;;;10364872;28;20237;-72
2022/07/24 09:19:22;;;;;;;4.38;3.97;;;46.10;27.50;;;;;;10368582;28;20225;-71
2022/07/24 09:24:26;;;;;;;4.97;4.07;;;47.50;26.40;;;;;;10356464;28;20217;-72
2022/07/24 09:29:27;;;;;;;4.43;4.05;;;47.10;25.70;;;;;;10361194;28;20243;-71
2022/07/24 09:34:41;;;;;;;4.45;4.05;;;45.50;27.20;;;;;;10375769;28;20730;-72
2022/07/24 09:39:42;;;;;;;4.72;4.22;;;45.40;26.80;;;;;;10367855;28;20222;-72
2022/07/24 09:44:43;;;;;;;5.68;3.88;;;45.10;27.30;;;;;;10366558;28;20233;-73
2022/07/24 09:49:45;;;;;;;4.72;4.18;;;46.70;26.70;;;;;;10361580;28;20225;-72
2022/07/24 09:54:48;;;;;;;4.45;4.10;;;47.50;25.50;;;;;;10365171;28;20312;-72
2022/07/24 09:59:55;;;;;;;4.25;3.90;;;44.70;25.90;;;;;;10368271;28;20256;-72
2022/07/24 10:04:57;;;;;;;4.60;4.20;;;43.80;27.80;;;;;;10363556;28;20240;-72
2022/07/24 10:10:00;;;;;;;4.88;4.38;;;45.50;26.40;;;;;;10359155;28;20760;-72
2022/07/24 10:15:04;;;;;;;4.15;3.85;;;47.90;25.00;;;;;;10363273;28;20218;-72
2022/07/24 10:20:06;;;;;;;6.35;4.68;;;49.50;24.10;;;;;;10324246;28;20646;-72
2022/07/24 10:25:08;;;;;;;4.78;4.40;;;50.10;23.70;;;;;;10320245;28;20682;-71
2022/07/24 10:30:13;;;;;;;4.40;4.00;;;47.90;24.60;;;;;;10324830;28;20179;-72
2022/07/24 10:35:17;;;;;;;4.18;3.88;;;45.90;26.50;;;;;;10322169;28;20189;-72
2022/07/24 10:40:42;;;;;;;4.53;4.13;;;46.60;26.30;;;;;;10361910;28;20283;-72
2022/07/24 10:45:49;;;;;;;4.80;4.40;;;46.40;26.00;;;;;;10359930;28;20232;-72
2022/07/24 10:51:02;;;;;;;5.82;4.47;;;47.30;25.70;;;;;;10366227;28;20224;-72
2022/07/24 10:56:27;;;;;;;6.20;4.57;;;47.10;24.90;;;;;;10357659;28;20229;-72
2022/07/24 11:01:50;;;;;;;4.47;4.13;;;47.00;25.10;;;;;;10344405;28;20237;-71
2022/07/24 11:06:55;;;;;;;5.30;4.70;;;47.60;25.00;;;;;;10364031;28;20746;-72
2022/07/24 11:11:56;;;;;;;5.57;5.18;;;48.50;24.60;;;;;;10364750;28;20225;-72
2022/07/24 11:16:56;;;;;;;5.50;5.00;;;48.90;23.70;;;;;;10356875;28;20236;-73
2022/07/24 11:22:04;;;;;;;5.35;4.85;;;48.10;23.80;;;;;;10366237;28;20221;-72
2022/07/24 11:27:13;;;;;;;4.95;4.57;;;46.00;26.30;;;;;;10360289;28;20265;-72
2022/07/24 11:32:17;;;;;;;7.43;4.70;;;46.10;26.00;;;;;;10363749;28;20221;-72
2022/07/24 11:37:19;;;;;;;5.45;5.00;;;45.20;25.90;;;;;;10356487;28;20664;-72
2022/07/24 11:42:19;;;;;;;7.30;5.15;;;45.90;25.90;;;;;;10362320;28;20685;-72
2022/07/24 11:47:26;;;;;;;5.90;5.30;;;46.90;25.10;;;;;;10362346;28;20234;-70
2022/07/24 11:52:35;;;;;;;7.90;5.57;;;44.80;26.70;;;;;;10350937;28;20229;-72
2022/07/24 11:57:38;;;;;;;5.43;4.80;;;41.50;29.10;;;;;;10355065;28;20239;-73
2022/07/24 12:02:50;;;;;;;5.87;5.27;;;39.30;30.20;;;;;;10364008;28;20312;-71
2022/07/24 12:07:50;;;;;;;5.93;5.07;;;37.90;33.00;;;;;;10376703;28;20232;-73
2022/07/24 12:12:53;;;;;;;5.43;4.93;;;36.90;34.40;;;;;;10359647;28;20712;-71
2022/07/24 12:18:06;;;;;;;6.20;5.60;;;36.20;35.00;;;;;;10360501;28;20213;-72
2022/07/24 12:23:09;;;;;;;5.80;5.30;;;35.60;35.50;;;;;;10356356;28;20967;-71
2022/07/24 12:28:19;;;;;;;5.97;5.37;;;35.20;36.20;;;;;;10361277;28;20232;-71
2022/07/24 12:33:22;;;;;;;6.03;5.50;;;35.00;37.10;;;;;;10361699;28;20260;-73
2022/07/24 12:38:28;;;;;;;6.87;4.97;;;35.00;36.70;;;;;;10357833;28;20212;-71
2022/07/24 12:43:29;;;;;;;6.23;5.37;;;34.90;36.90;;;;;;10360243;28;20221;-72
2022/07/24 12:48:29;;;;;;;6.00;5.37;;;34.70;36.90;;;;;;10362246;28;20212;-72
2022/07/24 12:53:33;;;;;;;5.20;4.80;;;34.70;36.60;;;;;;10379236;28;20217;-72
2022/07/24 12:58:54;;;;;;;5.63;5.13;;;34.50;37.40;;;;;;10360732;28;20228;-73
2022/07/24 13:03:58;;;;;;;5.43;4.70;;;34.50;37.20;;;;;;10363555;28;20237;-72
2022/07/24 13:08:59;;;;;;;5.70;4.87;;;34.60;37.30;;;;;;10364944;28;20215;-72
2022/07/24 13:14:00;;;;;;;7.60;5.43;;;34.50;38.20;;;;;;10358853;28;20217;-71
2022/07/24 13:19:01;;;;;;;5.80;5.30;;;34.40;38.00;;;;;;10353109;28;20266;-71
2022/07/24 13:24:03;;;;;;;6.07;5.10;;;34.40;37.50;;;;;;10362352;28;20235;-71
2022/07/24 13:29:05;;;;;;;5.53;5.13;;;34.30;37.70;;;;;;10358587;28;20223;-71
2022/07/24 13:34:05;;;;;;;6.33;5.00;;;34.10;38.30;;;;;;10368394;28;20222;-72
2022/07/24 13:39:07;;;;;;;5.43;5.03;;;34.00;38.10;;;;;;10372771;28;20708;-71
2022/07/24 13:44:08;;;;;;;6.73;4.90;;;33.70;38.50;;;;;;10361786;28;20231;-72
2022/07/24 13:49:09;;;;;;;6.93;5.20;;;33.60;38.70;;;;;;10367175;28;20225;-72
2022/07/24 13:54:09;;;;;;;6.00;5.40;;;33.60;38.70;;;;;;10367419;28;20217;-73
2022/07/24 13:59:10;;;;;;;5.90;5.40;;;33.60;39.00;;;;;;10351939;28;20217;-71
2022/07/24 14:04:11;;;;;;;5.93;5.20;;;33.50;39.40;;;;;;10364098;28;20218;-71
2022/07/24 14:09:12;;;;;;;5.80;5.20;;;33.50;39.20;;;;;;10370211;28;20213;-71
2022/07/24 14:14:15;;;;;;;6.13;5.07;;;33.40;39.40;;;;;;10360635;28;20348;-71
2022/07/24 14:19:16;;;;;;;6.57;5.97;;;33.30;39.60;;;;;;10358119;28;20276;-73
2022/07/24 14:24:19;;;;;;;5.90;5.30;;;33.40;39.80;;;;;;10362844;28;20236;-71
2022/07/24 14:29:23;;;;;;;6.67;6.00;;;33.30;40.30;;;;;;10375951;28;20241;-72
2022/07/24 14:34:23;;;;;;;6.53;5.93;;;33.30;40.30;;;;;;10364814;28;20246;-71
2022/07/24 14:39:24;;;;;;;9.67;5.50;;;33.30;40.40;;;;;;10369638;28;20223;-73
2022/07/24 14:44:25;;;;;;;6.47;5.33;;;33.40;40.40;;;;;;10361156;28;20229;-72
2022/07/24 14:49:25;;;;;;;6.17;5.57;;;33.30;40.00;;;;;;10357904;28;20222;-72
2022/07/24 14:54:29;;;;;;;6.60;5.90;;;33.30;40.00;;;;;;10365831;28;20228;-70
2022/07/24 14:59:29;;;;;;;6.00;5.50;;;33.10;39.50;;;;;;10356059;28;20237;-71
2022/07/24 15:04:30;;;;;;;7.23;5.80;;;32.80;40.10;;;;;;10351739;28;20597;-72
2022/07/24 15:09:30;;;;;;;7.17;6.03;;;32.90;40.50;;;;;;10366787;28;20216;-71
2022/07/24 15:14:31;;;;;;;8.67;5.73;;;32.80;40.50;;;;;;10364484;28;20280;-71
2022/07/24 15:19:32;;;;;;;6.40;5.90;;;32.60;40.50;;;;;;10363584;28;20227;-71
2022/07/24 15:24:35;;;;;;;6.73;6.00;;;32.70;40.50;;;;;;10364220;28;20222;-72
2022/07/24 15:29:35;;;;;;;6.27;5.67;;;32.50;40.30;;;;;;10354555;28;20217;-72
2022/07/24 15:34:36;;;;;;;6.50;5.90;;;32.40;40.80;;;;;;10353340;28;20213;-71
2022/07/24 15:39:36;;;;;;;6.87;5.70;;;32.50;40.60;;;;;;10360409;28;20299;-72
2022/07/24 15:44:37;;;;;;;6.13;5.60;;;32.60;40.50;;;;;;10368110;28;20232;-73
2022/07/24 15:49:38;;;;;;;6.03;5.40;;;32.60;40.00;;;;;;10360517;28;20214;-71
2022/07/24 15:54:38;;;;;;;6.17;5.67;;;32.70;40.20;;;;;;10365573;28;20213;-72
2022/07/24 15:59:39;;;;;;;5.90;5.30;;;32.70;40.00;;;;;;10371144;28;20213;-75
2022/07/24 16:04:39;;;;;;;6.53;5.40;;;32.60;39.40;;;;;;10358249;28;20304;-72
2022/07/24 16:09:40;;;;;;;7.07;6.30;;;32.50;40.20;;;;;;10354620;28;20637;-72
2022/07/24 16:14:41;;;;;;;5.93;5.43;;;32.40;40.60;;;;;;10367245;28;20723;-73
2022/07/24 16:19:42;;;;;;;5.73;5.10;;;32.30;40.40;;;;;;10349870;28;20691;-70
2022/07/24 16:24:42;;;;;;;6.37;5.70;;;32.20;40.60;;;;;;10358214;28;20592;-72
2022/07/24 16:29:43;;;;;;;5.90;5.30;;;32.10;41.10;;;;;;10369189;28;20220;-72
2022/07/24 16:34:44;;;;;;;7.07;5.60;;;32.00;40.80;;;;;;10356295;28;20222;-71
2022/07/24 16:39:44;;;;;;;8.63;5.27;;;32.00;41.30;;;;;;10346164;28;20240;-72
2022/07/24 16:44:45;;;;;;;6.33;5.10;;;31.90;40.70;;;;;;10362550;28;20217;-71
2022/07/24 16:49:48;;;;;;;5.17;4.70;;;31.80;40.70;;;;;;10360010;28;20304;-71
2022/07/24 16:54:49;;;;;;;5.00;4.50;;;31.80;40.40;;;;;;10364321;28;20308;-72
2022/07/24 16:59:49;;;;;;;4.87;4.20;;;31.60;39.40;;;;;;10354337;28;20312;-72
2022/07/24 17:04:50;;;;;;;5.17;4.20;;;31.50;39.30;;;;;;10358261;28;20217;-71
2022/07/24 17:09:50;;;;;;;4.93;4.50;;;31.50;39.10;;;;;;10380827;28;20213;-72
2022/07/24 17:14:51;;;;;;;4.43;4.13;;;31.40;38.70;;;;;;10379774;28;20213;-70
2022/07/24 17:19:52;;;;;;;4.53;4.10;;;31.30;38.80;;;;;;10372590;28;20218;-71
2022/07/24 17:24:52;;;;;;;4.33;3.80;;;31.20;39.10;;;;;;10369922;28;20352;-72
2022/07/24 17:29:53;;;;;;;10.87;4.40;;;31.10;39.80;;;;;;10367455;28;20292;-71
2022/07/24 17:34:53;;;;;;;4.40;4.10;;;31.00;39.20;;;;;;10368233;28;20226;-71
2022/07/24 17:39:54;;;;;;;4.20;3.90;;;30.90;39.50;;;;;;10364944;28;20701;-71
2022/07/24 17:44:54;;;;;;;6.97;5.03;;;30.80;39.60;;;;;;10370226;28;20233;-71
2022/07/24 17:49:55;;;;;;;7.43;6.73;;;30.80;39.20;;;;;;10362913;28;20287;-71
2022/07/24 17:54:56;;;;;;;4.97;4.57;;;30.60;39.50;;;;;;10357539;28;20599;-71
2022/07/24 17:59:56;;;;;;;6.33;5.50;;;30.50;39.80;;;;;;10359623;28;20225;-71
2022/07/24 18:04:57;;;;;;;5.30;4.80;;;30.40;40.20;;;;;;10365149;28;20305;-73
2022/07/24 18:09:58;;;;;;;5.33;4.83;;;30.30;40.20;;;;;;10362109;28;20214;-70
2022/07/24 18:14:59;;;;;;;5.23;4.73;;;30.20;40.50;;;;;;10373893;28;20253;-71
2022/07/24 18:20:00;;;;;;;4.90;4.40;;;30.20;40.70;;;;;;10364920;28;20853;-70
2022/07/24 18:25:01;;;;;;;6.03;4.27;;;30.00;44.10;;;;;;10358102;28;20241;-69
2022/07/24 18:30:02;;;;;;;6.20;4.10;;;29.80;43.90;;;;;;10362284;28;20860;-71
2022/07/24 18:35:03;;;;;;;5.13;4.50;;;29.60;45.20;;;;;;10370478;28;20259;-69
2022/07/24 18:40:04;;;;;;;6.00;4.40;;;29.30;45.80;;;;;;10370513;28;20348;-70
2022/07/24 18:45:06;;;;;;;7.27;4.50;;;29.10;45.90;;;;;;10355636;28;20278;-70
2022/07/24 18:50:08;;;;;;;7.93;5.10;;;28.90;46.70;;;;;;10363295;28;20276;-70
2022/07/24 18:55:10;;;;;;;4.90;4.50;;;28.70;47.30;;;;;;10351258;28;20190;-70
2022/07/24 19:00:11;;;;;;;5.60;4.63;;;28.40;47.60;;;;;;10362145;28;20598;-69
2022/07/24 19:05:12;;;;;;;5.80;5.10;;;28.10;49.40;;;;;;10350999;28;20202;-70
2022/07/24 19:10:13;;;;;;;8.93;5.23;;;27.90;49.60;;;;;;10371499;28;20184;-68
2022/07/24 19:15:14;;;;;;;7.03;5.33;;;27.60;52.30;;;;;;10369606;28;20185;-68
2022/07/24 19:20:14;;;;;;;8.30;6.27;;;27.40;55.40;;;;;;10364329;28;20553;-69
2022/07/24 19:25:16;;;;;;;10.00;5.87;;;27.20;54.70;;;;;;10350121;28;20244;-70
2022/07/24 19:30:17;;;;;;;12.20;6.10;;;27.00;53.90;;;;;;10359681;28;20313;-70
2022/07/24 19:35:18;;;;;;;7.63;5.63;;;26.90;54.90;;;;;;10357327;28;20196;-70
2022/07/24 19:40:21;;;;;;;8.17;6.30;;;26.70;55.30;;;;;;10370112;28;20217;-70
2022/07/24 19:45:22;;;;;;;6.77;6.17;;;26.60;55.30;;;;;;10347019;28;20221;-70
2022/07/24 19:50:23;;;;;;;10.60;6.30;;;26.50;55.20;;;;;;10359047;28;20236;-69
2022/07/24 19:55:23;;;;;;;6.97;6.00;;;26.30;55.10;;;;;;10354270;28;20221;-69
2022/07/24 20:00:25;;;;;;;7.90;6.17;;;26.20;55.50;;;;;;10353837;28;20684;-68
2022/07/24 20:05:30;;;;;;;7.50;6.60;;;26.10;56.20;;;;;;10349320;28;20774;-68
2022/07/24 20:10:31;;;;;;;7.27;6.57;;;26.10;56.40;;;;;;10364470;28;20244;-71
2022/07/24 20:15:32;;;;;;;6.47;5.87;;;25.90;56.90;;;;;;10355585;28;20734;-71
2022/07/24 20:20:32;;;;;;;7.00;5.20;;;25.90;54.90;;;;;;10347656;28;20209;-71
2022/07/24 20:25:33;;;;;;;7.97;5.83;;;25.90;54.10;;;;;;10362801;28;20228;-71
2022/07/24 20:30:33;;;;;;;6.40;5.73;;;25.80;56.00;;;;;;10345104;28;20751;-72
2022/07/24 20:35:34;;;;;;;8.53;6.60;;;25.70;56.80;;;;;;10351802;28;20730;-71
2022/07/24 20:40:38;;;;;;;6.50;5.93;;;25.60;57.80;;;;;;10354550;28;20235;-72
2022/07/24 20:45:38;;;;;;;9.73;6.97;;;25.50;58.40;;;;;;10364823;28;20225;-71
2022/07/24 20:50:40;;;;;;;7.37;6.53;;;25.40;59.10;;;;;;10355972;28;20658;-72
2022/07/24 20:55:40;;;;;;;8.13;6.30;;;25.30;58.90;;;;;;10367416;28;20279;-71
2022/07/24 21:00:42;;;;;;;9.03;6.93;;;25.20;59.50;;;;;;10355299;28;20714;-71
2022/07/24 21:05:45;;;;;;;8.50;6.77;;;25.20;59.30;;;;;;10376174;28;20279;-71
2022/07/24 21:10:46;;;;;;;7.73;6.93;;;25.10;58.70;;;;;;10365399;28;20722;-71
2022/07/24 21:15:46;;;;;;;8.43;6.97;;;25.00;59.50;;;;;;10385336;28;20300;-71
2022/07/24 21:20:50;;;;;;;9.80;6.90;;;25.00;59.40;;;;;;10361234;28;20218;-71
2022/07/24 21:25:54;;;;;;;7.90;7.10;;;25.00;59.40;;;;;;10366570;28;20281;-71
2022/07/24 21:30:54;;;;;;;8.50;7.70;;;24.90;59.50;;;;;;10364433;28;20248;-71
2022/07/24 21:35:55;;;;;;;10.57;7.27;;;24.90;61.00;;;;;;10363916;28;20230;-71
2022/07/24 21:40:56;;;;;;;7.90;6.20;;;24.80;61.30;;;;;;10367075;28;20221;-70
2022/07/24 21:45:56;;;;;;;7.67;6.90;;;24.80;60.80;;;;;;10362657;28;20245;-71
2022/07/24 21:50:57;;;;;;;7.40;6.70;;;24.70;62.00;;;;;;10355123;28;20326;-69
2022/07/24 21:55:58;;;;;;;6.70;5.97;;;24.60;61.20;;;;;;10361918;28;20217;-70
2022/07/24 22:00:59;;;;;;;8.17;6.83;;;24.60;60.70;;;;;;10354740;28;20220;-71
2022/07/24 22:06:06;;;;;;;6.37;5.80;;;24.60;62.10;;;;;;10366456;28;20601;-71
2022/07/24 22:11:07;;;;;;;6.13;5.53;;;24.60;61.40;;;;;;10379878;28;20243;-72
2022/07/24 22:16:08;;;;;;;7.20;6.50;;;24.60;60.80;;;;;;10360588;28;20228;-71
2022/07/24 22:21:08;;;;;;;6.63;6.03;;;24.60;62.10;;;;;;10359954;28;20217;-71
2022/07/24 22:26:09;;;;;;;11.50;6.63;;;24.60;62.00;;;;;;10355593;28;20237;-73
2022/07/24 22:31:10;;;;;;;7.67;5.93;;;24.50;63.40;;;;;;10359417;28;20244;-72
2022/07/24 22:36:12;;;;;;;8.17;6.20;;;24.50;61.90;;;;;;10380196;28;20708;-71
2022/07/24 22:41:15;;;;;;;7.70;6.93;;;24.50;62.50;;;;;;10369814;28;20225;-72
2022/07/24 22:46:19;;;;;;;8.90;6.43;;;24.50;64.20;;;;;;10361194;28;20256;-71
2022/07/24 22:51:20;;;;;;;7.63;6.30;;;24.40;63.80;;;;;;10354094;28;20221;-71
2022/07/24 22:56:26;;;;;;;8.40;7.60;;;24.40;62.70;;;;;;10355082;28;20581;-71
2022/07/24 23:01:27;;;;;;;7.90;6.33;;;24.40;65.10;;;;;;10374178;28;20715;-71
2022/07/24 23:06:27;;;;;;;7.83;7.10;;;24.30;64.00;;;;;;10383348;28;20233;-71
2022/07/24 23:11:32;;;;;;;7.93;7.17;;;24.30;66.50;;;;;;10365562;28;20237;-71
2022/07/24 23:16:32;;;;;;;8.40;7.23;;;24.20;67.40;;;;;;10368593;28;20702;-71
2022/07/24 23:21:33;;;;;;;7.70;7.00;;;24.10;67.10;;;;;;10362192;28;20255;-71
2022/07/24 23:26:33;;;;;;;7.30;6.60;;;24.10;67.40;;;;;;10362565;28;20234;-71
2022/07/24 23:31:34;;;;;;;6.60;6.03;;;24.00;67.90;;;;;;10362662;28;20595;-70
2022/07/24 23:36:35;;;;;;;7.70;7.00;;;24.00;68.80;;;;;;10367171;28;20228;-70
2022/07/24 23:41:35;;;;;;;7.97;6.87;;;23.90;69.90;;;;;;10364494;28;20228;-70
2022/07/24 23:46:36;;;;;;;8.10;7.30;;;23.90;70.70;;;;;;10355304;28;20423;-69
2022/07/24 23:51:37;;;;;;;7.87;6.90;;;23.80;71.40;;;;;;10362421;28;20300;-70
2022/07/24 23:56:37;;;;;;;8.57;7.27;;;23.70;71.70;;;;;;10362863;28;20569;-70
